Jackson, Missouri
Current Conditions -  °F | °C
As of 12:53 AM on Monday 22 Dec 2014 (Local Time) from KCGI Reporting Station
Overcast Overcast  
Wind Chill: 38°   Ceiling: 7500
Heat Index: 43°   Visibility: 10mi
Dew Point: 33°   Wind: 9mph
Humidity: 68%   Direction: 130°SE
Pressure: 29.93"   Gusts: NA
Location:  37.38°N, 89.67°W
Report Text: KCGI 220653Z AUTO 13008KT 10SM BKN075 OVC095 06/01 A2993 RMK AO2 SLP134 T00610006 TSNO
Loading
Personal Weather Stations






























Interactive Weather Map New forecast layout! Learn more

10-Day Weather Forecast

Advertisements
Track Severe Weather on mobile